createdAt,value
2022-10-04T00:01:13.289Z,82.58
2022-10-04T00:06:21.593Z,83.76
2022-10-04T00:11:35.212Z,83.91
2022-10-04T00:16:40.340Z,83.80
2022-10-04T00:21:54.761Z,83.29
2022-10-04T00:27:24.017Z,82.36
2022-10-04T00:32:40.313Z,81.95
2022-10-04T00:38:06.997Z,82.85
2022-10-04T00:43:24.113Z,82.41
2022-10-04T00:48:47.579Z,83.06
2022-10-04T00:53:59.100Z,83.25
2022-10-04T00:59:09.482Z,83.86
2022-10-04T01:04:38.450Z,84.27
2022-10-04T01:09:54.840Z,84.06
2022-10-04T01:15:07.436Z,83.42
2022-10-04T01:20:33.722Z,83.26
2022-10-04T01:25:50.750Z,83.02
2022-10-04T01:30:53.374Z,83.42
2022-10-04T01:35:55.140Z,83.34
2022-10-04T01:41:03.058Z,82.94
2022-10-04T01:46:14.941Z,83.70
2022-10-04T01:51:23.448Z,84.42
2022-10-04T01:56:30.352Z,83.75
2022-10-04T02:01:39.117Z,83.84
2022-10-04T02:06:43.361Z,84.04
2022-10-04T02:11:50.928Z,84.75
2022-10-04T02:16:53.940Z,84.52
2022-10-04T02:21:56.717Z,84.83
2022-10-04T02:26:59.432Z,83.90
2022-10-04T02:32:23.229Z,84.09
2022-10-04T02:37:27.498Z,83.67
2022-10-04T02:42:40.950Z,83.91
2022-10-04T02:47:51.765Z,83.30
2022-10-04T02:53:16.153Z,83.07
2022-10-04T02:58:22.417Z,83.01
2022-10-04T03:03:32.554Z,83.57
2022-10-04T03:08:44.706Z,84.14
2022-10-04T03:13:49.430Z,84.51
2022-10-04T03:18:53.504Z,84.54
2022-10-04T03:23:55.438Z,84.27
2022-10-04T03:28:58.828Z,84.16
2022-10-04T03:34:00.844Z,84.33
2022-10-04T03:39:09.393Z,84.79
2022-10-04T03:44:17.920Z,84.89
2022-10-04T03:49:31.809Z,84.04
2022-10-04T03:54:35.123Z,84.48
2022-10-04T03:59:37.533Z,84.66
2022-10-04T04:05:17.179Z,84.42
2022-10-04T04:10:29.679Z,83.92
2022-10-04T04:15:33.834Z,83.37
2022-10-04T04:20:38.322Z,83.18
2022-10-04T04:25:43.281Z,83.32
2022-10-04T04:30:48.054Z,83.62
2022-10-04T04:35:55.325Z,82.59
2022-10-04T04:40:57.425Z,82.57
2022-10-04T04:46:25.565Z,83.10
2022-10-04T04:51:24.844Z,83.01
2022-10-04T04:56:28.739Z,83.37
2022-10-04T05:01:46.453Z,83.96
2022-10-04T05:07:16.308Z,84.15
2022-10-04T05:12:21.693Z,83.78
2022-10-04T05:17:26.240Z,87.83
2022-10-04T05:22:29.666Z,86.87
2022-10-04T05:27:35.382Z,84.88
2022-10-04T05:33:06.950Z,83.48
2022-10-04T05:38:16.490Z,82.18
2022-10-04T05:43:35.418Z,81.35
2022-10-04T05:48:41.729Z,79.88
2022-10-04T05:53:44.176Z,79.82
2022-10-04T05:59:02.040Z,81.16
2022-10-04T06:04:24.747Z,81.93
2022-10-04T06:09:47.393Z,82.35
2022-10-04T06:14:49.819Z,82.77
2022-10-04T06:19:57.672Z,83.33
2022-10-04T06:25:18.220Z,83.37
2022-10-04T06:30:20.771Z,83.89
2022-10-04T06:35:22.441Z,84.71
2022-10-04T06:40:46.916Z,85.09
2022-10-04T06:46:07.068Z,85.59
2022-10-04T06:51:20.938Z,85.89
2022-10-04T06:56:28.403Z,86.35
2022-10-04T07:01:47.391Z,86.71
2022-10-04T07:07:35.646Z,86.98
2022-10-04T07:12:41.834Z,87.20
2022-10-04T07:17:46.263Z,87.96
2022-10-04T07:23:34.507Z,88.35
2022-10-04T07:29:01.913Z,88.22
2022-10-04T07:34:15.794Z,88.17
2022-10-04T07:39:24.538Z,89.09
2022-10-04T07:44:32.086Z,89.66
2022-10-04T07:49:39.381Z,89.89
2022-10-04T07:54:50.957Z,90.59
2022-10-04T08:00:02.798Z,91.32
2022-10-04T08:05:24.484Z,92.92
2022-10-04T08:10:26.081Z,93.46
2022-10-04T08:15:37.911Z,93.30
2022-10-04T08:20:54.937Z,93.67
2022-10-04T08:26:13.157Z,94.12
2022-10-04T08:31:24.744Z,94.66
2022-10-04T08:36:53.150Z,95.15
2022-10-04T08:42:15.543Z,95.73
2022-10-04T08:47:40.988Z,96.11
2022-10-04T08:53:10.820Z,95.99
2022-10-04T08:58:14.213Z,96.05
2022-10-04T09:03:58.900Z,95.85
2022-10-04T09:09:40.614Z,96.53
2022-10-04T09:15:15.045Z,95.17
2022-10-04T09:20:39.423Z,94.22
2022-10-04T09:25:44.405Z,93.11
2022-10-04T09:30:54.748Z,91.35
2022-10-04T09:36:11.609Z,90.25
2022-10-04T09:41:38.072Z,87.41
2022-10-04T09:47:02.029Z,86.12
2022-10-04T09:52:40.042Z,86.55
2022-10-04T09:58:11.772Z,86.00
2022-10-04T10:03:38.227Z,83.95
2022-10-04T10:08:48.557Z,83.30
2022-10-04T10:14:12.067Z,82.80
2022-10-04T10:19:30.714Z,82.56
2022-10-04T10:24:47.003Z,81.73
2022-10-04T10:29:59.336Z,79.94
2022-10-04T10:35:06.919Z,78.19
2022-10-04T10:40:16.714Z,75.70
2022-10-04T10:45:45.658Z,72.08
2022-10-04T10:51:10.238Z,73.00
2022-10-04T10:56:30.327Z,71.63
2022-10-04T11:01:50.904Z,72.38
2022-10-04T11:07:18.447Z,70.79
2022-10-04T11:12:55.308Z,70.94
2022-10-04T11:18:33.796Z,69.46
2022-10-04T11:24:05.876Z,69.87
2022-10-04T11:29:16.030Z,69.59
2022-10-04T11:34:50.805Z,68.55
2022-10-04T11:39:58.558Z,69.21
2022-10-04T11:45:08.650Z,69.04
2022-10-04T11:50:30.582Z,67.08
2022-10-04T11:55:54.052Z,66.37
2022-10-04T12:01:01.742Z,66.18
2022-10-04T12:06:22.670Z,65.91
2022-10-04T12:12:08.304Z,66.19
2022-10-04T12:17:36.101Z,64.31
2022-10-04T12:22:56.471Z,61.62
2022-10-04T12:28:20.356Z,62.29
2022-10-04T12:33:44.735Z,62.84
2022-10-04T12:39:07.858Z,61.98
2022-10-04T12:44:31.336Z,60.84
2022-10-04T12:50:08.702Z,60.64
2022-10-04T12:55:38.084Z,60.83
2022-10-04T13:00:45.705Z,61.13
2022-10-04T13:05:47.633Z,60.16
2022-10-04T13:10:58.521Z,60.35
2022-10-04T13:22:11.733Z,59.22
2022-10-04T13:27:18.851Z,58.69
2022-10-04T13:32:28.798Z,59.08
2022-10-04T13:37:49.632Z,59.06
2022-10-04T13:42:51.266Z,57.68
2022-10-04T13:48:26.021Z,58.59
2022-10-04T13:54:21.482Z,59.25
2022-10-04T13:59:49.176Z,58.03
2022-10-04T14:05:20.648Z,58.96
2022-10-04T14:10:34.374Z,58.71
2022-10-04T14:16:03.786Z,58.33
2022-10-04T14:21:33.755Z,57.70
2022-10-04T14:27:06.464Z,59.39
2022-10-04T14:32:13.966Z,60.59
2022-10-04T14:37:38.299Z,61.33
2022-10-04T14:42:58.791Z,61.83
2022-10-04T14:48:26.135Z,61.94
2022-10-04T14:53:40.990Z,62.65
2022-10-04T14:59:11.342Z,63.31
2022-10-04T15:04:34.888Z,65.47
2022-10-04T15:09:49.671Z,67.19
2022-10-04T15:15:24.103Z,68.92
2022-10-04T15:20:28.703Z,69.63
2022-10-04T15:25:39.293Z,70.63
2022-10-04T15:30:55.327Z,71.22
2022-10-04T15:35:56.920Z,71.43
2022-10-04T15:41:06.784Z,72.58
2022-10-04T15:46:27.008Z,73.57
2022-10-04T15:51:50.272Z,74.15
2022-10-04T15:57:20.776Z,74.52
2022-10-04T16:02:44.418Z,75.03
2022-10-04T16:08:08.962Z,76.07
2022-10-04T16:13:21.767Z,77.06
2022-10-04T16:18:48.707Z,77.53
2022-10-04T16:24:19.949Z,78.21
2022-10-04T16:29:29.291Z,79.21
2022-10-04T16:34:45.162Z,80.81
2022-10-04T16:40:06.037Z,82.09
2022-10-04T16:45:07.704Z,82.33
2022-10-04T16:50:11.520Z,82.93
2022-10-04T16:55:31.458Z,83.85
2022-10-04T17:00:36.145Z,84.36
2022-10-04T17:05:48.761Z,84.79
2022-10-04T17:11:09.107Z,85.65
2022-10-04T17:16:21.835Z,86.16
2022-10-04T17:21:23.713Z,85.79
2022-10-04T17:26:44.284Z,86.69
2022-10-04T17:31:56.665Z,86.84
2022-10-04T17:37:37.208Z,86.49
2022-10-04T17:43:06.920Z,87.12
2022-10-04T17:48:33.739Z,87.66
2022-10-04T17:53:55.724Z,87.69
2022-10-04T17:58:59.495Z,87.58
2022-10-04T18:04:27.029Z,87.59
2022-10-04T18:09:50.666Z,87.64
2022-10-04T18:15:03.648Z,88.05
2022-10-04T18:20:22.502Z,88.19
2022-10-04T18:25:30.982Z,88.48
2022-10-04T18:30:54.791Z,88.99
2022-10-04T18:36:05.516Z,89.96
2022-10-04T18:41:21.225Z,89.71
2022-10-04T18:46:23.339Z,89.54
2022-10-04T18:51:26.883Z,89.15
2022-10-04T18:56:33.946Z,88.92
2022-10-04T19:02:09.673Z,88.09
2022-10-04T19:07:31.407Z,87.38
2022-10-04T19:13:02.920Z,87.59
2022-10-04T19:18:07.282Z,87.63
2022-10-04T19:23:34.202Z,88.76
2022-10-04T19:28:38.036Z,88.97
2022-10-04T19:34:05.698Z,89.21
2022-10-04T19:39:25.708Z,88.64
2022-10-04T19:44:52.047Z,88.93
2022-10-04T19:50:18.077Z,88.91
2022-10-04T19:55:39.362Z,88.46
2022-10-04T20:00:41.077Z,88.26
2022-10-04T20:05:45.785Z,88.29
2022-10-04T20:10:47.613Z,88.29
2022-10-04T20:15:59.797Z,88.12
2022-10-04T20:21:01.565Z,87.37
2022-10-04T20:26:55.077Z,86.53
2022-10-04T20:31:57.375Z,85.52
2022-10-04T20:37:00.059Z,85.40
2022-10-04T20:42:22.659Z,84.95
2022-10-04T20:47:39.373Z,85.17
2022-10-04T20:52:51.169Z,85.13
2022-10-04T20:57:54.907Z,85.06
2022-10-04T21:03:30.490Z,85.23
2022-10-04T21:08:32.861Z,85.87
2022-10-04T21:13:55.052Z,86.51
2022-10-04T21:19:42.960Z,87.60
2022-10-04T21:24:50.506Z,87.68
2022-10-04T21:29:53.623Z,87.73
2022-10-04T21:34:55.299Z,88.31
2022-10-04T21:39:57.076Z,87.91
2022-10-04T21:44:59.365Z,85.96
2022-10-04T21:50:01.020Z,85.45
2022-10-04T21:55:02.755Z,85.75
2022-10-04T22:00:05.334Z,86.16
2022-10-04T22:05:14.259Z,86.65
2022-10-04T22:10:16.152Z,87.15
2022-10-04T22:15:17.976Z,86.83
2022-10-04T22:20:19.828Z,85.58
2022-10-04T22:25:23.219Z,85.60
2022-10-04T22:30:31.060Z,85.59
2022-10-04T22:35:34.627Z,85.78
2022-10-04T22:40:36.925Z,85.87
2022-10-04T22:45:38.693Z,85.46
2022-10-04T22:50:40.429Z,85.48
2022-10-04T22:55:42.712Z,85.47
2022-10-04T23:00:45.030Z,85.65
2022-10-04T23:05:46.720Z,85.64
2022-10-04T23:10:52.647Z,84.81
2022-10-04T23:16:00.514Z,84.57
2022-10-04T23:21:02.532Z,84.29
2022-10-04T23:26:13.269Z,84.91
2022-10-04T23:31:26.059Z,85.16
2022-10-04T23:36:28.454Z,86.07
2022-10-04T23:41:30.132Z,87.14
2022-10-04T23:46:31.729Z,87.77
2022-10-04T23:51:33.567Z,87.43
2022-10-04T23:56:35.341Z,87.85
